Time;durP1;ratioP1;P1;durP2;ratioP2;P2;SDS_P1;SDS_P2;PMS_P1;PMS_P2;Temp;Humidity;BMP_temperature;BMP_pressure;BME280_temperature;BME280_humidity;BME280_pressure;Samples;Min_cycle;Max_cycle;Signal;HPM_P1;HPM_P2
2023/04/18 00:00:17;;;;;;;15.55;10.38;;;7.80;99.90;;;;;;5027559;28;20116;-63
2023/04/18 00:02:44;;;;;;;13.70;8.85;;;7.70;99.90;;;;;;5019017;28;20042;-65
2023/04/18 00:05:16;;;;;;;10.48;7.85;;;7.70;99.90;;;;;;5008159;28;20064;-63
2023/04/18 00:07:43;;;;;;;11.27;8.00;;;7.70;99.90;;;;;;5017445;28;20237;-63
2023/04/18 00:10:09;;;;;;;10.80;7.95;;;7.60;99.90;;;;;;5016792;28;20759;-64
2023/04/18 00:12:35;;;;;;;11.48;7.75;;;7.70;99.90;;;;;;5019075;28;20055;-63
2023/04/18 00:15:02;;;;;;;11.77;8.68;;;7.60;99.90;;;;;;5017423;28;20714;-63
2023/04/18 00:17:29;;;;;;;15.85;10.15;;;7.60;99.90;;;;;;5017550;28;20541;-63
2023/04/18 00:19:57;;;;;;;14.23;9.98;;;7.50;99.90;;;;;;5015726;28;20249;-63
2023/04/18 00:22:24;;;;;;;11.93;8.27;;;7.50;99.90;;;;;;5016797;28;20060;-63
2023/04/18 00:24:50;;;;;;;11.70;7.70;;;7.50;99.90;;;;;;5017185;28;20041;-63
2023/04/18 00:27:20;;;;;;;13.07;5.78;;;7.50;99.90;;;;;;5016827;28;20037;-65
2023/04/18 00:29:46;;;;;;;8.45;4.25;;;7.50;99.90;;;;;;5035701;28;20050;-63
2023/04/18 00:32:12;;;;;;;9.93;7.25;;;7.50;99.90;;;;;;5016316;28;20092;-63
2023/04/18 00:34:39;;;;;;;13.65;8.45;;;7.50;99.90;;;;;;5015108;28;20291;-64
2023/04/18 00:37:05;;;;;;;12.23;9.27;;;7.40;99.90;;;;;;5026970;28;20045;-62
2023/04/18 00:39:31;;;;;;;9.98;8.30;;;7.40;99.90;;;;;;5015242;28;20186;-64
2023/04/18 00:41:56;;;;;;;9.32;6.80;;;7.30;99.90;;;;;;5017059;28;20041;-63
2023/04/18 00:44:22;;;;;;;11.60;8.38;;;7.30;99.90;;;;;;5015730;28;20037;-64
2023/04/18 00:46:48;;;;;;;14.48;8.30;;;7.30;99.90;;;;;;5008246;28;20308;-64
2023/04/18 00:49:15;;;;;;;9.70;7.00;;;7.30;99.90;;;;;;5007957;28;20432;-62
2023/04/18 00:51:40;;;;;;;11.35;7.30;;;7.30;99.90;;;;;;5043639;28;20075;-62
2023/04/18 00:54:07;;;;;;;11.25;7.47;;;7.30;99.90;;;;;;5017746;28;20037;-63
2023/04/18 00:56:35;;;;;;;12.20;7.85;;;7.20;99.90;;;;;;5017068;28;20079;-64
2023/04/18 00:59:00;;;;;;;9.95;7.32;;;7.20;99.90;;;;;;5017446;28;20060;-64
2023/04/18 01:01:26;;;;;;;10.40;7.68;;;7.20;99.90;;;;;;5026937;28;20457;-63
2023/04/18 01:03:52;;;;;;;9.75;7.07;;;7.20;99.90;;;;;;5010211;28;20208;-63
2023/04/18 01:06:18;;;;;;;8.15;6.97;;;7.20;99.90;;;;;;5002335;28;20103;-64
2023/04/18 01:08:44;;;;;;;8.13;4.22;;;7.10;99.90;;;;;;5017742;28;20052;-63
2023/04/18 01:11:10;;;;;;;10.43;7.82;;;7.10;99.90;;;;;;5021064;28;20043;-63
2023/04/18 01:13:35;;;;;;;11.40;8.23;;;7.10;99.90;;;;;;5022414;28;20068;-63
2023/04/18 01:16:01;;;;;;;9.43;6.82;;;7.00;99.90;;;;;;5018411;28;20435;-64
2023/04/18 01:18:30;;;;;;;7.72;5.55;;;7.00;99.90;;;;;;5011869;28;20041;-62
2023/04/18 01:20:58;;;;;;;9.02;6.45;;;7.00;99.90;;;;;;5019489;28;20123;-63
2023/04/18 01:23:25;;;;;;;7.03;5.55;;;7.00;99.90;;;;;;5014024;28;20580;-62
2023/04/18 01:25:51;;;;;;;10.55;7.22;;;7.00;99.90;;;;;;5024769;28;20041;-63
2023/04/18 01:28:19;;;;;;;10.77;7.20;;;6.90;99.90;;;;;;5006292;28;20052;-64
2023/04/18 01:30:44;;;;;;;7.03;5.03;;;7.00;99.90;;;;;;5020043;28;20053;-63
2023/04/18 01:33:10;;;;;;;9.90;5.90;;;6.90;99.90;;;;;;5020355;28;20513;-63
2023/04/18 01:35:36;;;;;;;9.38;5.40;;;7.00;99.90;;;;;;5019375;28;20354;-64
2023/04/18 01:38:01;;;;;;;5.68;3.53;;;6.90;99.90;;;;;;5003947;28;20426;-64
2023/04/18 01:40:28;;;;;;;7.38;5.13;;;6.90;99.90;;;;;;5020857;28;20318;-63
2023/04/18 01:42:54;;;;;;;7.60;4.75;;;6.90;99.90;;;;;;5019969;28;20502;-64
2023/04/18 01:45:21;;;;;;;5.20;3.85;;;7.00;99.90;;;;;;5019753;28;20125;-63
2023/04/18 01:47:46;;;;;;;6.53;4.70;;;7.00;99.90;;;;;;5017944;28;20398;-62
2023/04/18 01:50:13;;;;;;;7.38;4.03;;;7.00;99.90;;;;;;5037604;28;20562;-62
2023/04/18 01:52:38;;;;;;;8.20;5.15;;;7.00;99.90;;;;;;5016035;28;20104;-62
2023/04/18 01:55:05;;;;;;;7.57;5.00;;;7.00;99.90;;;;;;5018429;28;20045;-62
2023/04/18 01:57:32;;;;;;;7.65;5.30;;;7.00;99.90;;;;;;5028367;28;20621;-62
2023/04/18 01:59:58;;;;;;;5.57;4.50;;;7.00;99.90;;;;;;5019039;28;20049;-63
2023/04/18 02:02:24;;;;;;;9.20;5.55;;;7.00;99.90;;;;;;5029044;28;20387;-63
2023/04/18 02:04:50;;;;;;;8.25;6.38;;;7.00;99.90;;;;;;5017628;28;20043;-62
2023/04/18 02:07:15;;;;;;;8.00;5.53;;;7.00;99.90;;;;;;5018644;28;20071;-63
2023/04/18 02:09:41;;;;;;;6.70;5.07;;;7.10;99.90;;;;;;5018506;28;20515;-63
2023/04/18 02:12:07;;;;;;;7.47;5.45;;;7.10;99.90;;;;;;5011847;28;20428;-63
2023/04/18 02:14:34;;;;;;;6.20;4.70;;;7.10;99.90;;;;;;5019588;28;20040;-63
2023/04/18 02:17:01;;;;;;;9.88;6.18;;;7.20;99.90;;;;;;5019229;28;20131;-62
2023/04/18 02:19:29;;;;;;;7.13;5.03;;;7.20;99.90;;;;;;5015800;28;20042;-63
2023/04/18 02:21:54;;;;;;;7.20;5.78;;;7.20;99.90;;;;;;5009369;28;20088;-64
2023/04/18 02:24:20;;;;;;;8.23;5.78;;;7.20;99.90;;;;;;5017458;28;20120;-64
2023/04/18 02:26:46;;;;;;;10.10;6.03;;;7.20;99.90;;;;;;5011647;28;20569;-61
2023/04/18 02:29:11;;;;;;;7.30;5.88;;;7.20;99.90;;;;;;5018168;28;20100;-63
2023/04/18 02:31:40;;;;;;;9.02;5.47;;;7.20;99.90;;;;;;5025358;28;20041;-62
2023/04/18 02:34:07;;;;;;;7.20;5.85;;;7.20;99.90;;;;;;5015254;28;20179;-64
2023/04/18 02:36:32;;;;;;;7.85;5.40;;;7.20;99.90;;;;;;5033084;28;20149;-63
2023/04/18 02:38:58;;;;;;;6.60;5.05;;;7.20;99.90;;;;;;5018514;28;20499;-62
2023/04/18 02:41:24;;;;;;;6.88;4.95;;;7.20;99.90;;;;;;5002209;28;20052;-61
2023/04/18 02:43:50;;;;;;;10.75;6.00;;;7.20;99.90;;;;;;5017210;28;20056;-62
2023/04/18 02:46:16;;;;;;;5.90;5.10;;;7.20;99.90;;;;;;5015125;28;20607;-62
2023/04/18 02:48:41;;;;;;;8.35;5.35;;;7.20;99.90;;;;;;5015177;28;20696;-64
2023/04/18 02:51:08;;;;;;;8.95;5.47;;;7.20;99.90;;;;;;5008384;28;20053;-64
2023/04/18 02:53:34;;;;;;;5.15;3.72;;;7.20;99.90;;;;;;4993167;28;20594;-63
2023/04/18 02:56:01;;;;;;;6.70;4.63;;;7.20;99.90;;;;;;5015739;28;20235;-63
2023/04/18 02:58:26;;;;;;;6.78;4.55;;;7.20;99.90;;;;;;5020629;28;20072;-64
2023/04/18 03:00:54;;;;;;;7.88;5.50;;;7.30;99.90;;;;;;5034552;28;20144;-63
2023/04/18 03:03:19;;;;;;;5.93;4.70;;;7.30;99.90;;;;;;5017538;28;20040;-62
2023/04/18 03:05:45;;;;;;;7.05;5.43;;;7.30;99.90;;;;;;5025149;28;20340;-62
2023/04/18 03:08:11;;;;;;;8.02;5.38;;;7.30;99.90;;;;;;5017454;28;20439;-64
2023/04/18 03:10:37;;;;;;;8.63;4.82;;;7.30;99.90;;;;;;5014967;28;20605;-62
2023/04/18 03:13:03;;;;;;;6.97;5.13;;;7.30;99.90;;;;;;5017968;28;20119;-63
2023/04/18 03:15:31;;;;;;;7.22;4.72;;;7.40;99.90;;;;;;5018658;28;20578;-61
2023/04/18 03:17:57;;;;;;;7.07;4.57;;;7.40;99.90;;;;;;5016895;28;20558;-62
2023/04/18 03:20:23;;;;;;;5.78;4.30;;;7.40;99.90;;;;;;5016213;28;20049;-61
2023/04/18 03:22:49;;;;;;;7.55;5.82;;;7.40;99.90;;;;;;4997295;28;20041;-63
2023/04/18 03:25:15;;;;;;;7.65;5.63;;;7.40;99.90;;;;;;4993835;28;20454;-62
2023/04/18 03:27:42;;;;;;;7.25;5.82;;;7.40;99.90;;;;;;5018329;28;20043;-63
2023/04/18 03:30:08;;;;;;;7.38;4.90;;;7.40;99.90;;;;;;5019555;28;20251;-62
2023/04/18 03:32:35;;;;;;;9.80;5.63;;;7.40;99.90;;;;;;5032555;28;20136;-63
2023/04/18 03:35:01;;;;;;;10.18;6.32;;;7.40;99.90;;;;;;5004492;28;20629;-64
2023/04/18 03:37:27;;;;;;;7.78;5.07;;;7.40;99.90;;;;;;5014631;28;20040;-62
2023/04/18 03:39:53;;;;;;;8.13;6.15;;;7.40;99.90;;;;;;5014833;28;20099;-61
2023/04/18 03:42:19;;;;;;;8.20;4.93;;;7.40;99.90;;;;;;5031063;28;20491;-62
2023/04/18 03:44:45;;;;;;;8.38;5.47;;;7.40;99.90;;;;;;5009240;28;20467;-62
2023/04/18 03:47:11;;;;;;;8.55;5.43;;;7.40;99.90;;;;;;5015318;28;20128;-63
2023/04/18 03:49:37;;;;;;;8.60;6.60;;;7.40;99.90;;;;;;5015008;28;20508;-63
2023/04/18 03:52:03;;;;;;;7.47;6.03;;;7.50;99.90;;;;;;5015698;28;20068;-63
2023/04/18 03:54:29;;;;;;;9.27;6.03;;;7.40;99.90;;;;;;5019707;28;20540;-63
2023/04/18 03:56:55;;;;;;;7.07;5.70;;;7.40;99.90;;;;;;5016874;28;20120;-63
2023/04/18 03:59:20;;;;;;;7.65;5.47;;;7.40;99.90;;;;;;5016081;28;20029;-62
2023/04/18 04:01:46;;;;;;;6.60;4.78;;;7.40;99.90;;;;;;5026395;28;20057;-62
2023/04/18 04:04:13;;;;;;;11.23;6.95;;;7.40;99.90;;;;;;5020266;28;20036;-61
2023/04/18 04:06:40;;;;;;;10.85;7.28;;;7.40;99.90;;;;;;5016938;28;20303;-62
2023/04/18 04:09:05;;;;;;;11.95;6.43;;;7.40;99.90;;;;;;5017884;28;20314;-63
2023/04/18 04:11:31;;;;;;;8.07;6.40;;;7.30;99.90;;;;;;5016820;28;20052;-62
2023/04/18 04:13:57;;;;;;;11.10;6.72;;;7.30;99.90;;;;;;5013413;28;20133;-61
2023/04/18 04:16:22;;;;;;;10.68;6.93;;;7.30;99.90;;;;;;5020713;28;20037;-62
2023/04/18 04:18:48;;;;;;;10.20;7.13;;;7.40;99.90;;;;;;5022352;28;20048;-62
2023/04/18 04:21:14;;;;;;;10.00;7.30;;;7.30;99.90;;;;;;5018490;28;20563;-62
2023/04/18 04:23:43;;;;;;;13.05;8.05;;;7.30;99.90;;;;;;5015928;28;20045;-62
2023/04/18 04:26:09;;;;;;;9.30;7.15;;;7.30;99.90;;;;;;5021024;28;20228;-62
2023/04/18 04:28:34;;;;;;;9.10;6.88;;;7.30;99.90;;;;;;5017201;28;20449;-62
2023/04/18 04:31:02;;;;;;;10.40;7.63;;;7.30;99.90;;;;;;5009794;28;20045;-62
2023/04/18 04:33:28;;;;;;;10.95;7.80;;;7.30;99.90;;;;;;5036548;28;20048;-64
2023/04/18 04:35:54;;;;;;;10.35;6.90;;;7.30;99.90;;;;;;5016028;28;20124;-63
2023/04/18 04:38:23;;;;;;;11.48;7.82;;;7.30;99.90;;;;;;5010776;28;20099;-63
2023/04/18 04:40:50;;;;;;;11.45;7.70;;;7.30;99.90;;;;;;5021967;28;20041;-62
2023/04/18 04:43:16;;;;;;;9.98;6.55;;;7.30;99.90;;;;;;5016371;28;20387;-63
2023/04/18 04:45:43;;;;;;;9.82;7.30;;;7.30;99.90;;;;;;5036303;28;20041;-62
2023/04/18 04:48:10;;;;;;;13.20;8.18;;;7.30;99.90;;;;;;5019403;28;20033;-61
2023/04/18 04:50:37;;;;;;;11.43;7.65;;;7.30;99.90;;;;;;5019708;28;20223;-62
2023/04/18 04:53:07;;;;;;;12.77;7.60;;;7.30;99.90;;;;;;5018739;28;20048;-62
2023/04/18 04:55:34;;;;;;;9.23;7.28;;;7.30;99.90;;;;;;5019699;28;20057;-61
2023/04/18 04:57:59;;;;;;;11.77;7.45;;;7.30;99.90;;;;;;5025049;28;20044;-61
2023/04/18 05:00:25;;;;;;;12.95;8.35;;;7.30;99.90;;;;;;5020810;28;20134;-61
2023/04/18 05:02:56;;;;;;;9.25;7.53;;;7.30;99.90;;;;;;5021807;28;21739;-62
2023/04/18 05:05:21;;;;;;;10.32;7.88;;;7.40;99.90;;;;;;5020778;28;20076;-62
2023/04/18 05:07:47;;;;;;;9.38;7.15;;;7.40;99.90;;;;;;5019936;28;20041;-61
2023/04/18 05:10:13;;;;;;;11.68;9.13;;;7.40;99.90;;;;;;5019677;28;20197;-63
2023/04/18 05:12:38;;;;;;;7.32;6.30;;;7.40;99.90;;;;;;5018781;28;20112;-63
2023/04/18 05:15:06;;;;;;;9.13;8.10;;;7.40;99.90;;;;;;5022355;28;20395;-62
2023/04/18 05:17:32;;;;;;;10.48;8.55;;;7.40;99.90;;;;;;5020213;28;20041;-63
2023/04/18 05:19:57;;;;;;;13.27;7.07;;;7.40;99.90;;;;;;5019776;28;20322;-62
2023/04/18 05:22:23;;;;;;;6.95;4.70;;;7.40;99.90;;;;;;5016517;28;20746;-63
2023/04/18 05:24:48;;;;;;;10.35;7.20;;;7.40;99.90;;;;;;5023862;28;20831;-63
2023/04/18 05:27:14;;;;;;;9.45;6.90;;;7.40;99.90;;;;;;5030036;28;20041;-64
2023/04/18 05:29:40;;;;;;;10.55;7.00;;;7.50;99.90;;;;;;5018625;28;20143;-63
2023/04/18 05:32:06;;;;;;;8.45;6.07;;;7.50;99.90;;;;;;5022182;28;20049;-63
2023/04/18 05:34:34;;;;;;;9.30;5.80;;;7.40;99.90;;;;;;5014382;28;20558;-63
2023/04/18 05:37:00;;;;;;;8.15;5.55;;;7.50;99.90;;;;;;5023349;28;21121;-64
2023/04/18 05:39:26;;;;;;;10.93;8.10;;;7.70;99.90;;;;;;5021114;28;20051;-64
2023/04/18 05:41:52;;;;;;;9.02;6.28;;;7.70;99.90;;;;;;5003725;28;20041;-62
2023/04/18 05:44:18;;;;;;;7.28;5.35;;;7.70;99.90;;;;;;5005550;28;20503;-64
2023/04/18 05:46:44;;;;;;;8.90;6.85;;;7.80;99.90;;;;;;5029986;28;20116;-62
2023/04/18 05:49:10;;;;;;;8.38;5.95;;;8.00;99.90;;;;;;5020203;28;20040;-62
2023/04/18 05:51:36;;;;;;;10.25;6.00;;;8.00;99.90;;;;;;5021478;28;20040;-62
2023/04/18 05:54:03;;;;;;;10.45;7.20;;;8.10;99.90;;;;;;5013653;28;20526;-61
2023/04/18 05:56:29;;;;;;;8.75;6.65;;;8.10;99.90;;;;;;5018684;28;20057;-62
2023/04/18 05:58:54;;;;;;;8.73;6.78;;;8.20;99.90;;;;;;5018550;28;20467;-62
2023/04/18 06:01:20;;;;;;;9.80;6.38;;;8.20;99.90;;;;;;5024665;28;20059;-64
2023/04/18 06:03:46;;;;;;;11.75;7.47;;;8.20;99.90;;;;;;5019134;28;20095;-63
2023/04/18 06:06:12;;;;;;;8.82;5.88;;;8.30;99.90;;;;;;5012597;28;20044;-64
2023/04/18 06:08:38;;;;;;;9.35;6.72;;;8.40;99.90;;;;;;5020682;28;20048;-62
2023/04/18 06:11:04;;;;;;;8.57;5.97;;;8.40;99.90;;;;;;5017262;28;20170;-63
2023/04/18 06:13:31;;;;;;;10.00;6.97;;;8.40;99.90;;;;;;5014841;28;20133;-64
2023/04/18 06:15:57;;;;;;;9.18;7.30;;;8.40;99.90;;;;;;5017470;28;20302;-64
2023/04/18 06:18:22;;;;;;;10.80;7.68;;;8.60;99.90;;;;;;5015620;28;20342;-63
2023/04/18 06:20:48;;;;;;;8.63;7.38;;;8.60;99.90;;;;;;5021124;28;20293;-63
2023/04/18 06:23:14;;;;;;;12.70;8.80;;;8.60;99.90;;;;;;5017575;28;20486;-64
2023/04/18 06:25:41;;;;;;;7.65;6.47;;;8.70;99.90;;;;;;5016830;28;20033;-63
2023/04/18 06:28:06;;;;;;;11.02;7.60;;;8.80;99.90;;;;;;5029689;28;20033;-62
2023/04/18 06:30:32;;;;;;;11.27;7.57;;;8.80;99.90;;;;;;5028521;28;20064;-63
2023/04/18 06:32:58;;;;;;;10.23;8.13;;;8.80;99.90;;;;;;5009856;28;20049;-63
2023/04/18 06:35:24;;;;;;;10.18;8.18;;;8.90;99.90;;;;;;5018367;28;20769;-63
2023/04/18 06:37:49;;;;;;;9.73;7.32;;;9.00;99.90;;;;;;5000251;28;20056;-66
2023/04/18 06:40:15;;;;;;;11.60;8.18;;;9.00;99.90;;;;;;5019225;28;20040;-63
2023/04/18 06:42:42;;;;;;;11.65;8.60;;;9.10;99.90;;;;;;5006132;28;20407;-63
2023/04/18 06:45:10;;;;;;;12.13;8.30;;;9.10;99.90;;;;;;5026940;28;20128;-62
2023/04/18 06:47:37;;;;;;;7.47;6.35;;;9.20;99.90;;;;;;5015716;28;20041;-62
2023/04/18 06:50:03;;;;;;;12.20;7.80;;;9.30;99.90;;;;;;5016645;28;20276;-63
2023/04/18 06:52:29;;;;;;;9.65;7.25;;;9.40;96.80;;;;;;5037461;28;20041;-62
2023/04/18 06:54:55;;;;;;;7.97;4.90;;;9.40;98.10;;;;;;5018714;28;20391;-64
2023/04/18 06:57:21;;;;;;;8.95;6.53;;;9.50;98.50;;;;;;5018165;28;20040;-62
2023/04/18 06:59:46;;;;;;;9.93;7.28;;;9.60;81.40;;;;;;5026925;28;20380;-64
2023/04/18 07:02:12;;;;;;;7.13;5.75;;;9.70;55.00;;;;;;5018064;28;20316;-66
2023/04/18 07:04:38;;;;;;;9.80;6.97;;;9.80;80.60;;;;;;5016806;28;20048;-63
2023/04/18 07:07:04;;;;;;;10.13;6.85;;;9.90;85.20;;;;;;5021978;28;20048;-62
2023/04/18 07:09:30;;;;;;;10.02;6.30;;;10.00;28.40;;;;;;5018613;28;20041;-62
2023/04/18 07:11:56;;;;;;;8.07;6.30;;;10.00;83.50;;;;;;5017653;28;20653;-63
2023/04/18 07:14:23;;;;;;;7.78;6.35;;;10.10;1.00;;;;;;5020106;28;20199;-63
2023/04/18 07:16:49;;;;;;;9.98;5.97;;;10.10;1.00;;;;;;5016775;28;20041;-64
2023/04/18 07:19:15;;;;;;;7.90;5.57;;;10.20;1.00;;;;;;5024421;28;20037;-63
2023/04/18 07:21:43;;;;;;;8.95;6.00;;;10.30;1.00;;;;;;5007084;28;20128;-63
2023/04/18 07:24:10;;;;;;;8.32;5.57;;;10.30;1.00;;;;;;5018112;28;20072;-63
2023/04/18 07:26:36;;;;;;;8.05;6.20;;;10.40;1.00;;;;;;5031891;28;20412;-63
2023/04/18 07:29:02;;;;;;;9.18;6.40;;;10.40;1.00;;;;;;5012670;28;20048;-63
2023/04/18 07:31:27;;;;;;;9.82;6.93;;;10.50;1.00;;;;;;5015594;28;21467;-63
2023/04/18 07:33:54;;;;;;;9.55;6.80;;;10.60;1.00;;;;;;5018845;28;20037;-62
2023/04/18 07:36:20;;;;;;;8.85;6.57;;;10.70;1.00;;;;;;5026731;28;20068;-63
2023/04/18 07:38:46;;;;;;;10.32;7.40;;;10.90;1.00;;;;;;5007303;28;20569;-63
2023/04/18 07:41:12;;;;;;;7.78;6.40;;;11.10;1.00;;;;;;5014056;28;20088;-62
2023/04/18 07:43:39;;;;;;;10.68;6.85;;;11.20;1.00;;;;;;5018147;28;20151;-62
2023/04/18 07:46:08;;;;;;;7.63;6.28;;;11.30;99.90;;;;;;4999956;28;20051;-63
2023/04/18 07:48:33;;;;;;;10.50;6.72;;;11.30;99.90;;;;;;5008058;28;20049;-64
2023/04/18 07:50:59;;;;;;;8.20;5.78;;;11.40;99.90;;;;;;5019620;28;20067;-64
2023/04/18 07:53:25;;;;;;;9.52;7.00;;;11.50;99.90;;;;;;4998422;28;20527;-63
2023/04/18 07:55:51;;;;;;;6.68;5.15;;;11.60;99.90;;;;;;4998758;28;20486;-63
2023/04/18 07:58:16;;;;;;;9.23;6.00;;;11.80;99.90;;;;;;5015277;28;20400;-63
2023/04/18 08:00:43;;;;;;;8.20;6.10;;;11.80;99.90;;;;;;5017951;28;20539;-63
2023/04/18 08:03:10;;;;;;;8.55;7.50;;;11.90;99.90;;;;;;4994414;28;20056;-62
2023/04/18 08:05:37;;;;;;;8.88;5.72;;;12.00;99.90;;;;;;5016137;28;20037;-63
2023/04/18 08:08:05;;;;;;;8.35;6.38;;;12.00;99.90;;;;;;5009589;28;20087;-62
2023/04/18 08:10:31;;;;;;;8.77;6.05;;;12.20;99.90;;;;;;5017175;28;20045;-63
2023/04/18 08:12:56;;;;;;;6.88;5.75;;;12.40;99.90;;;;;;5013614;28;20561;-62
2023/04/18 08:15:22;;;;;;;7.05;5.63;;;12.30;99.90;;;;;;5008147;28;20037;-63
2023/04/18 08:17:50;;;;;;;9.00;5.65;;;12.40;99.90;;;;;;5013468;28;20142;-63
2023/04/18 08:20:15;;;;;;;7.97;5.88;;;12.50;99.90;;;;;;5023124;28;20688;-62
2023/04/18 08:22:42;;;;;;;8.25;5.05;;;12.60;99.90;;;;;;5019921;28;20033;-63
2023/04/18 08:25:08;;;;;;;6.03;5.03;;;12.60;99.90;;;;;;5011500;28;20040;-62
2023/04/18 08:27:33;;;;;;;5.10;4.32;;;12.80;99.90;;;;;;5018486;28;20233;-63
2023/04/18 08:30:00;;;;;;;7.20;5.68;;;12.80;99.90;;;;;;5017124;28;20041;-62
2023/04/18 08:32:26;;;;;;;8.43;5.00;;;13.00;99.90;;;;;;5022427;28;20053;-63
2023/04/18 08:34:52;;;;;;;4.15;3.28;;;13.00;99.90;;;;;;5018073;28;20034;-62
2023/04/18 08:37:17;;;;;;;7.20;4.90;;;13.10;99.90;;;;;;5002261;28;20167;-63
2023/04/18 08:39:43;;;;;;;7.65;5.03;;;13.20;99.90;;;;;;5017104;28;20057;-64
2023/04/18 08:42:10;;;;;;;5.93;4.85;;;13.30;99.90;;;;;;5014349;28;20044;-63
2023/04/18 08:44:36;;;;;;;6.28;5.07;;;13.30;99.90;;;;;;5018322;28;20385;-62
2023/04/18 08:47:02;;;;;;;7.05;4.80;;;13.50;99.90;;;;;;5027842;28;20233;-62
2023/04/18 08:49:30;;;;;;;8.23;4.72;;;13.70;99.90;;;;;;5023452;28;20045;-62
2023/04/18 08:51:58;;;;;;;5.65;2.80;;;13.60;99.90;;;;;;5018297;28;20059;-62
2023/04/18 08:54:25;;;;;;;4.35;2.88;;;13.80;99.90;;;;;;5018375;28;20033;-63
2023/04/18 08:57:08;;;;;;;4.22;3.47;;;13.70;99.90;;;;;;5016761;28;20049;-64
2023/04/18 08:59:34;;;;;;;6.32;4.60;;;13.70;99.90;;;;;;5018338;28;20507;-62
2023/04/18 09:02:02;;;;;;;5.45;4.30;;;13.70;99.90;;;;;;5012605;28;20063;-63
2023/04/18 09:04:35;;;;;;;6.15;3.83;;;13.80;99.90;;;;;;5008079;28;20379;-62
2023/04/18 09:07:07;;;;;;;5.25;4.30;;;13.90;99.90;;;;;;5015650;28;20226;-63
2023/04/18 09:09:59;;;;;;;7.43;3.92;;;14.10;99.90;;;;;;5015595;28;20494;-64
2023/04/18 09:12:28;;;;;;;5.88;3.78;;;14.20;99.90;;;;;;5013787;28;20045;-64
2023/04/18 09:14:56;;;;;;;4.88;3.72;;;14.20;99.90;;;;;;4996851;28;20029;-64
2023/04/18 09:17:41;;;;;;;7.22;4.60;;;14.20;99.90;;;;;;5020451;28;20073;-63
2023/04/18 09:20:11;;;;;;;5.85;4.32;;;14.30;99.90;;;;;;5018826;28;20065;-65
2023/04/18 09:22:52;;;;;;;4.90;3.67;;;14.40;99.90;;;;;;5015314;28;20049;-63
2023/04/18 09:25:43;;;;;;;5.82;3.88;;;14.50;99.90;;;;;;5015859;28;20115;-64
2023/04/18 09:28:27;;;;;;;5.60;3.45;;;14.60;99.90;;;;;;5015756;28;20037;-63
2023/04/18 09:30:54;;;;;;;4.13;3.30;;;14.60;99.90;;;;;;5031871;28;20170;-64
2023/04/18 09:33:31;;;;;;;5.30;3.67;;;14.70;99.90;;;;;;5005153;28;20053;-63
2023/04/18 09:36:17;;;;;;;4.57;3.45;;;14.70;99.90;;;;;;5017582;28;20404;-63
2023/04/18 09:38:42;;;;;;;6.57;4.38;;;14.60;99.90;;;;;;5018568;28;20076;-63
2023/04/18 09:41:10;;;;;;;5.82;3.97;;;14.70;99.90;;;;;;5016164;28;20169;-64
2023/04/18 09:43:35;;;;;;;4.25;3.53;;;14.90;99.90;;;;;;5016937;28;20085;-63
2023/04/18 09:46:03;;;;;;;6.10;4.55;;;14.80;99.90;;;;;;5019520;28;20574;-63
2023/04/18 09:48:29;;;;;;;7.82;4.32;;;14.80;99.90;;;;;;5012504;28;20092;-65
2023/04/18 09:50:55;;;;;;;6.05;4.05;;;14.70;99.90;;;;;;5014814;28;20389;-63
2023/04/18 09:53:22;;;;;;;7.18;3.70;;;14.80;99.90;;;;;;5015472;28;20037;-64
2023/04/18 09:55:51;;;;;;;4.63;3.65;;;15.00;99.90;;;;;;5014151;28;20046;-65
2023/04/18 09:58:21;;;;;;;5.72;3.97;;;15.10;99.90;;;;;;5016660;28;20110;-64
2023/04/18 10:00:50;;;;;;;6.65;3.50;;;15.20;99.90;;;;;;5030381;28;20128;-64
2023/04/18 10:03:17;;;;;;;5.63;3.42;;;15.40;99.90;;;;;;5016526;28;20235;-64
2023/04/18 10:05:47;;;;;;;3.28;2.92;;;15.40;99.90;;;;;;5035891;28;20438;-64
2023/04/18 10:08:13;;;;;;;7.07;3.88;;;15.30;99.90;;;;;;5015606;28;20091;-63
2023/04/18 10:10:40;;;;;;;4.72;3.15;;;15.10;99.90;;;;;;5016822;28;20042;-63
2023/04/18 10:13:09;;;;;;;3.78;2.97;;;15.30;99.90;;;;;;5015706;28;20041;-64
2023/04/18 10:15:36;;;;;;;8.57;2.78;;;15.20;99.90;;;;;;5015313;28;20136;-64
2023/04/18 10:18:13;;;;;;;5.25;3.42;;;15.20;99.90;;;;;;5014841;28;20057;-63
2023/04/18 10:20:40;;;;;;;5.75;4.03;;;15.40;99.90;;;;;;5033062;28;20041;-63
2023/04/18 10:23:31;;;;;;;5.07;3.25;;;15.50;99.90;;;;;;4994969;28;20570;-63
2023/04/18 10:25:57;;;;;;;5.38;3.38;;;15.60;99.90;;;;;;5014535;28;20306;-62
2023/04/18 10:28:25;;;;;;;4.15;3.22;;;15.80;99.90;;;;;;4998423;28;20755;-64
2023/04/18 10:31:01;;;;;;;5.35;4.43;;;15.90;99.90;;;;;;5034510;28;20775;-63
2023/04/18 10:33:37;;;;;;;5.22;2.90;;;16.00;99.90;;;;;;5013045;28;20450;-64
2023/04/18 10:36:11;;;;;;;3.15;1.52;;;16.20;99.90;;;;;;5017026;28;20051;-63
2023/04/18 10:38:44;;;;;;;4.10;2.72;;;16.10;99.90;;;;;;5014001;28;20049;-64
2023/04/18 10:41:26;;;;;;;2.75;2.00;;;15.90;99.90;;;;;;5010374;28;20064;-63
2023/04/18 10:44:28;;;;;;;3.47;2.65;;;15.70;99.90;;;;;;5014928;28;20041;-64
2023/04/18 10:47:14;;;;;;;3.17;2.72;;;15.40;99.90;;;;;;5002179;28;20036;-63
2023/04/18 10:49:52;;;;;;;3.53;2.40;;;15.40;99.90;;;;;;5014380;28;20111;-64
2023/04/18 10:52:18;;;;;;;2.53;2.10;;;15.20;99.90;;;;;;5021652;28;20052;-63
2023/04/18 10:54:57;;;;;;;2.00;1.75;;;14.90;99.90;;;;;;5012671;28;20412;-64
2023/04/18 10:57:22;;;;;;;2.88;2.10;;;14.80;99.90;;;;;;5033784;28;20420;-64
2023/04/18 10:59:51;;;;;;;2.42;1.23;;;15.10;99.90;;;;;;5017778;28;20114;-63
2023/04/18 11:02:31;;;;;;;2.83;1.15;;;15.40;99.90;;;;;;5012277;28;20040;-64
2023/04/18 11:04:58;;;;;;;2.78;1.20;;;15.20;99.90;;;;;;5035214;28;20620;-63
2023/04/18 11:07:54;;;;;;;2.60;1.35;;;15.60;99.90;;;;;;5014708;28;20558;-63
2023/04/18 11:10:22;;;;;;;4.90;1.63;;;16.20;99.90;;;;;;5013398;28;20045;-64
2023/04/18 11:12:48;;;;;;;2.75;1.75;;;15.90;99.90;;;;;;5015257;28;20493;-63
2023/04/18 11:15:22;;;;;;;3.13;1.70;;;15.70;99.90;;;;;;5019389;28;20094;-64
2023/04/18 11:18:03;;;;;;;2.75;1.48;;;15.30;99.90;;;;;;5015710;28;20080;-63
2023/04/18 11:20:37;;;;;;;2.53;1.77;;;15.00;99.90;;;;;;5008753;28;20320;-64
2023/04/18 11:23:03;;;;;;;3.10;1.80;;;14.90;99.90;;;;;;5023218;28;20592;-65
2023/04/18 11:25:35;;;;;;;2.28;1.40;;;14.80;99.90;;;;;;5012911;28;20369;-65
2023/04/18 11:28:02;;;;;;;1.92;1.60;;;14.90;99.90;;;;;;5013299;28;20049;-64
2023/04/18 11:30:36;;;;;;;1.70;1.08;;;15.40;99.90;;;;;;5010589;28;20329;-63
2023/04/18 11:33:12;;;;;;;3.90;1.10;;;15.50;99.90;;;;;;5012761;28;20037;-64
2023/04/18 11:35:43;;;;;;;1.85;1.50;;;15.20;99.90;;;;;;5011616;28;20332;-64
2023/04/18 11:38:11;;;;;;;2.72;1.70;;;14.80;99.90;;;;;;5033801;28;20044;-65
2023/04/18 11:40:37;;;;;;;2.92;1.63;;;14.70;99.90;;;;;;5024388;28;20387;-63
2023/04/18 11:43:05;;;;;;;2.58;1.77;;;14.70;99.90;;;;;;5025152;28;20044;-63
2023/04/18 11:45:31;;;;;;;2.60;1.48;;;14.90;99.90;;;;;;5012398;28;20653;-62
2023/04/18 11:47:58;;;;;;;3.15;2.47;;;15.20;99.90;;;;;;5037383;28;20041;-64
2023/04/18 11:50:24;;;;;;;2.85;1.50;;;15.50;99.90;;;;;;5012386;28;20396;-64
2023/04/18 11:52:52;;;;;;;2.90;1.33;;;16.00;99.90;;;;;;5006866;28;20040;-64
2023/04/18 11:55:26;;;;;;;2.35;1.30;;;16.30;99.90;;;;;;5007954;28;20048;-63
2023/04/18 11:58:00;;;;;;;2.22;1.50;;;16.50;99.90;;;;;;5025470;28;20060;-62
2023/04/18 12:00:37;;;;;;;4.38;1.92;;;17.00;99.90;;;;;;4998997;28;20860;-62
2023/04/18 12:03:19;;;;;;;2.92;2.25;;;17.30;99.90;;;;;;5026369;28;20056;-63
2023/04/18 12:05:45;;;;;;;2.53;1.42;;;16.70;99.90;;;;;;5014140;28;20673;-64
2023/04/18 12:08:12;;;;;;;3.15;2.63;;;15.70;99.90;;;;;;5013387;28;20273;-63
2023/04/18 12:10:46;;;;;;;3.30;2.03;;;15.10;99.90;;;;;;5028556;28;20533;-64
2023/04/18 12:13:12;;;;;;;4.63;2.45;;;14.70;99.90;;;;;;5020817;28;20132;-64
2023/04/18 12:15:39;;;;;;;3.22;2.80;;;14.30;99.90;;;;;;5016182;28;20051;-63
2023/04/18 12:18:07;;;;;;;4.50;2.28;;;14.30;99.90;;;;;;5012952;28;20221;-64
2023/04/18 12:20:50;;;;;;;2.30;2.05;;;14.60;99.90;;;;;;5008728;28;20064;-64
2023/04/18 12:23:35;;;;;;;3.95;2.75;;;14.60;99.90;;;;;;5008803;28;20076;-63
2023/04/18 12:26:06;;;;;;;4.85;2.75;;;14.10;99.90;;;;;;5009734;28;20044;-64
2023/04/18 12:28:33;;;;;;;3.08;2.15;;;14.00;99.90;;;;;;5005368;28;20103;-64
2023/04/18 12:30:59;;;;;;;3.47;2.35;;;14.60;99.90;;;;;;5014923;28;20057;-62
2023/04/18 12:33:25;;;;;;;3.65;1.85;;;15.00;99.90;;;;;;5008544;28;20036;-63
2023/04/18 12:35:52;;;;;;;3.70;2.53;;;15.10;99.90;;;;;;5013299;28;20357;-63
2023/04/18 12:38:22;;;;;;;4.30;2.40;;;14.60;99.90;;;;;;5015369;28;20128;-63
2023/04/18 12:40:48;;;;;;;2.67;2.20;;;14.20;99.90;;;;;;5005093;28;20041;-65
2023/04/18 12:43:14;;;;;;;3.47;2.20;;;13.70;99.90;;;;;;5018689;28;20095;-64
2023/04/18 12:45:40;;;;;;;4.15;2.60;;;13.80;99.90;;;;;;5016408;28;20112;-63
2023/04/18 12:48:06;;;;;;;4.57;3.08;;;13.90;99.90;;;;;;4987770;28;20034;-62
2023/04/18 12:50:32;;;;;;;4.47;3.55;;;13.90;99.90;;;;;;5002927;28;20325;-62
2023/04/18 12:52:59;;;;;;;4.28;3.88;;;14.40;99.90;;;;;;5013282;28;20128;-63